sensor_id;sensor_type;location;lat;lon;timestamp;P1;durP1;ratioP1;P2;durP2;ratioP2
27383;SDS011;14851;51.166;4.760;2024-01-25T00:01:20;44.08;;;8.70;;
27383;SDS011;14851;51.166;4.760;2024-01-25T00:03:46;41.25;;;9.57;;
27383;SDS011;14851;51.166;4.760;2024-01-25T00:06:14;43.17;;;9.18;;
27383;SDS011;14851;51.166;4.760;2024-01-25T00:08:40;42.22;;;8.02;;
27383;SDS011;14851;51.166;4.760;2024-01-25T00:11:09;50.30;;;9.40;;
27383;SDS011;14851;51.166;4.760;2024-01-25T00:13:35;40.88;;;8.27;;
27383;SDS011;14851;51.166;4.760;2024-01-25T00:16:02;47.08;;;10.48;;
27383;SDS011;14851;51.166;4.760;2024-01-25T00:18:29;51.55;;;10.50;;
27383;SDS011;14851;51.166;4.760;2024-01-25T00:20:55;45.75;;;8.02;;
27383;SDS011;14851;51.166;4.760;2024-01-25T00:23:21;40.70;;;8.65;;
27383;SDS011;14851;51.166;4.760;2024-01-25T00:25:49;40.33;;;9.15;;
27383;SDS011;14851;51.166;4.760;2024-01-25T00:28:15;42.03;;;8.50;;
27383;SDS011;14851;51.166;4.760;2024-01-25T00:30:41;54.00;;;8.95;;
27383;SDS011;14851;51.166;4.760;2024-01-25T00:33:06;42.25;;;8.75;;
27383;SDS011;14851;51.166;4.760;2024-01-25T00:35:35;37.20;;;7.47;;
27383;SDS011;14851;51.166;4.760;2024-01-25T00:38:01;41.60;;;9.07;;
27383;SDS011;14851;51.166;4.760;2024-01-25T00:40:30;44.85;;;8.65;;
27383;SDS011;14851;51.166;4.760;2024-01-25T00:42:55;45.63;;;8.52;;
27383;SDS011;14851;51.166;4.760;2024-01-25T00:45:25;47.25;;;9.45;;
27383;SDS011;14851;51.166;4.760;2024-01-25T00:47:53;43.38;;;7.75;;
27383;SDS011;14851;51.166;4.760;2024-01-25T00:50:20;44.75;;;8.98;;
27383;SDS011;14851;51.166;4.760;2024-01-25T00:52:48;45.10;;;8.77;;
27383;SDS011;14851;51.166;4.760;2024-01-25T00:55:15;49.05;;;8.55;;
27383;SDS011;14851;51.166;4.760;2024-01-25T00:57:41;46.88;;;7.88;;
27383;SDS011;14851;51.166;4.760;2024-01-25T01:00:11;38.42;;;8.85;;
27383;SDS011;14851;51.166;4.760;2024-01-25T01:02:42;45.13;;;9.68;;
27383;SDS011;14851;51.166;4.760;2024-01-25T01:05:10;37.53;;;7.65;;
27383;SDS011;14851;51.166;4.760;2024-01-25T01:07:38;45.50;;;9.50;;
27383;SDS011;14851;51.166;4.760;2024-01-25T01:10:08;50.22;;;9.10;;
27383;SDS011;14851;51.166;4.760;2024-01-25T01:12:37;40.45;;;7.60;;
27383;SDS011;14851;51.166;4.760;2024-01-25T01:26:53;47.08;;;8.88;;
27383;SDS011;14851;51.166;4.760;2024-01-25T01:29:19;50.13;;;8.82;;
27383;SDS011;14851;51.166;4.760;2024-01-25T01:31:45;40.00;;;8.20;;
27383;SDS011;14851;51.166;4.760;2024-01-25T01:34:11;37.63;;;7.45;;
27383;SDS011;14851;51.166;4.760;2024-01-25T01:36:40;38.90;;;8.57;;
27383;SDS011;14851;51.166;4.760;2024-01-25T01:39:05;45.85;;;8.50;;
27383;SDS011;14851;51.166;4.760;2024-01-25T01:41:31;45.05;;;9.02;;
27383;SDS011;14851;51.166;4.760;2024-01-25T01:44:00;45.13;;;9.13;;
27383;SDS011;14851;51.166;4.760;2024-01-25T01:49:12;42.47;;;9.75;;
27383;SDS011;14851;51.166;4.760;2024-01-25T01:51:42;43.20;;;8.57;;
27383;SDS011;14851;51.166;4.760;2024-01-25T01:54:09;38.30;;;7.82;;
27383;SDS011;14851;51.166;4.760;2024-01-25T01:56:35;39.40;;;7.90;;
27383;SDS011;14851;51.166;4.760;2024-01-25T01:59:04;38.22;;;7.05;;
27383;SDS011;14851;51.166;4.760;2024-01-25T02:01:33;44.03;;;8.55;;
27383;SDS011;14851;51.166;4.760;2024-01-25T02:03:59;48.15;;;8.45;;
27383;SDS011;14851;51.166;4.760;2024-01-25T02:06:27;37.13;;;7.75;;
27383;SDS011;14851;51.166;4.760;2024-01-25T02:08:55;40.80;;;8.85;;
27383;SDS011;14851;51.166;4.760;2024-01-25T02:11:27;48.67;;;8.40;;
27383;SDS011;14851;51.166;4.760;2024-01-25T02:13:56;41.03;;;8.30;;
27383;SDS011;14851;51.166;4.760;2024-01-25T02:16:21;51.22;;;8.73;;
27383;SDS011;14851;51.166;4.760;2024-01-25T02:18:47;41.67;;;8.43;;
27383;SDS011;14851;51.166;4.760;2024-01-25T02:21:15;42.72;;;7.22;;
27383;SDS011;14851;51.166;4.760;2024-01-25T02:23:41;42.53;;;8.50;;
27383;SDS011;14851;51.166;4.760;2024-01-25T02:26:10;44.40;;;9.20;;
27383;SDS011;14851;51.166;4.760;2024-01-25T02:28:36;40.28;;;8.50;;
27383;SDS011;14851;51.166;4.760;2024-01-25T02:31:04;38.42;;;8.88;;
27383;SDS011;14851;51.166;4.760;2024-01-25T02:33:31;42.70;;;7.82;;
27383;SDS011;14851;51.166;4.760;2024-01-25T02:36:00;44.60;;;7.65;;
27383;SDS011;14851;51.166;4.760;2024-01-25T02:38:27;37.97;;;7.55;;
27383;SDS011;14851;51.166;4.760;2024-01-25T02:40:53;52.58;;;8.38;;
27383;SDS011;14851;51.166;4.760;2024-01-25T02:43:20;48.60;;;9.23;;
27383;SDS011;14851;51.166;4.760;2024-01-25T02:45:51;41.95;;;7.43;;
27383;SDS011;14851;51.166;4.760;2024-01-25T02:48:17;46.55;;;8.43;;
27383;SDS011;14851;51.166;4.760;2024-01-25T02:50:46;44.67;;;9.20;;
27383;SDS011;14851;51.166;4.760;2024-01-25T02:53:17;38.75;;;7.32;;
27383;SDS011;14851;51.166;4.760;2024-01-25T02:55:42;43.17;;;9.40;;
27383;SDS011;14851;51.166;4.760;2024-01-25T02:58:08;41.28;;;7.95;;
27383;SDS011;14851;51.166;4.760;2024-01-25T03:00:34;43.13;;;8.65;;
27383;SDS011;14851;51.166;4.760;2024-01-25T03:03:00;50.47;;;8.65;;
27383;SDS011;14851;51.166;4.760;2024-01-25T03:05:29;30.40;;;6.38;;
27383;SDS011;14851;51.166;4.760;2024-01-25T03:07:54;36.05;;;7.35;;
27383;SDS011;14851;51.166;4.760;2024-01-25T03:10:20;34.20;;;7.50;;
27383;SDS011;14851;51.166;4.760;2024-01-25T03:12:46;37.40;;;7.63;;
27383;SDS011;14851;51.166;4.760;2024-01-25T03:15:12;31.52;;;6.95;;
27383;SDS011;14851;51.166;4.760;2024-01-25T03:17:38;37.97;;;7.35;;
27383;SDS011;14851;51.166;4.760;2024-01-25T03:20:06;37.13;;;7.85;;
27383;SDS011;14851;51.166;4.760;2024-01-25T03:22:34;34.75;;;6.70;;
27383;SDS011;14851;51.166;4.760;2024-01-25T03:25:02;35.10;;;7.40;;
27383;SDS011;14851;51.166;4.760;2024-01-25T03:27:28;42.58;;;7.90;;
27383;SDS011;14851;51.166;4.760;2024-01-25T03:29:53;39.58;;;8.10;;
27383;SDS011;14851;51.166;4.760;2024-01-25T03:32:19;41.58;;;8.63;;
27383;SDS011;14851;51.166;4.760;2024-01-25T03:34:45;33.17;;;6.90;;
27383;SDS011;14851;51.166;4.760;2024-01-25T03:37:11;30.85;;;6.40;;
27383;SDS011;14851;51.166;4.760;2024-01-25T03:39:37;36.03;;;6.68;;
27383;SDS011;14851;51.166;4.760;2024-01-25T03:42:04;40.67;;;7.20;;
27383;SDS011;14851;51.166;4.760;2024-01-25T03:44:30;30.77;;;6.45;;
27383;SDS011;14851;51.166;4.760;2024-01-25T03:46:58;29.38;;;6.65;;
27383;SDS011;14851;51.166;4.760;2024-01-25T03:49:27;34.17;;;6.72;;
27383;SDS011;14851;51.166;4.760;2024-01-25T03:51:53;38.13;;;7.72;;
27383;SDS011;14851;51.166;4.760;2024-01-25T03:54:21;34.60;;;7.82;;
27383;SDS011;14851;51.166;4.760;2024-01-25T03:56:47;30.65;;;7.00;;
27383;SDS011;14851;51.166;4.760;2024-01-25T03:59:15;26.85;;;5.57;;
27383;SDS011;14851;51.166;4.760;2024-01-25T04:01:45;28.30;;;6.22;;
27383;SDS011;14851;51.166;4.760;2024-01-25T04:04:12;32.35;;;6.47;;
27383;SDS011;14851;51.166;4.760;2024-01-25T04:06:41;35.85;;;6.93;;
27383;SDS011;14851;51.166;4.760;2024-01-25T04:11:39;24.83;;;5.95;;
27383;SDS011;14851;51.166;4.760;2024-01-25T04:16:32;26.08;;;5.65;;
27383;SDS011;14851;51.166;4.760;2024-01-25T04:18:59;28.35;;;6.03;;
27383;SDS011;14851;51.166;4.760;2024-01-25T04:21:27;28.80;;;6.38;;
27383;SDS011;14851;51.166;4.760;2024-01-25T04:23:53;27.55;;;5.88;;
27383;SDS011;14851;51.166;4.760;2024-01-25T04:26:24;25.80;;;6.10;;
27383;SDS011;14851;51.166;4.760;2024-01-25T04:28:49;27.35;;;6.18;;
27383;SDS011;14851;51.166;4.760;2024-01-25T04:31:15;32.40;;;6.35;;
27383;SDS011;14851;51.166;4.760;2024-01-25T04:33:41;22.63;;;4.97;;
27383;SDS011;14851;51.166;4.760;2024-01-25T04:36:09;28.73;;;5.53;;
27383;SDS011;14851;51.166;4.760;2024-01-25T04:38:35;25.02;;;6.70;;
27383;SDS011;14851;51.166;4.760;2024-01-25T04:41:03;23.02;;;5.13;;
27383;SDS011;14851;51.166;4.760;2024-01-25T04:43:33;28.00;;;6.45;;
27383;SDS011;14851;51.166;4.760;2024-01-25T04:46:02;30.90;;;6.75;;
27383;SDS011;14851;51.166;4.760;2024-01-25T04:48:29;29.35;;;6.10;;
27383;SDS011;14851;51.166;4.760;2024-01-25T04:50:58;26.27;;;5.35;;
27383;SDS011;14851;51.166;4.760;2024-01-25T04:53:26;29.50;;;5.40;;
27383;SDS011;14851;51.166;4.760;2024-01-25T04:55:53;21.40;;;5.88;;
27383;SDS011;14851;51.166;4.760;2024-01-25T04:58:20;24.65;;;6.05;;
27383;SDS011;14851;51.166;4.760;2024-01-25T05:00:47;18.88;;;4.88;;
27383;SDS011;14851;51.166;4.760;2024-01-25T05:03:13;24.45;;;5.65;;
27383;SDS011;14851;51.166;4.760;2024-01-25T05:05:41;28.45;;;6.47;;
27383;SDS011;14851;51.166;4.760;2024-01-25T05:08:12;25.45;;;6.53;;
27383;SDS011;14851;51.166;4.760;2024-01-25T05:10:38;29.63;;;6.32;;
27383;SDS011;14851;51.166;4.760;2024-01-25T05:13:06;34.42;;;8.02;;
27383;SDS011;14851;51.166;4.760;2024-01-25T05:15:34;34.45;;;7.47;;
27383;SDS011;14851;51.166;4.760;2024-01-25T05:18:01;28.10;;;6.03;;
27383;SDS011;14851;51.166;4.760;2024-01-25T05:23:02;29.50;;;7.97;;
27383;SDS011;14851;51.166;4.760;2024-01-25T05:25:29;28.90;;;8.05;;
27383;SDS011;14851;51.166;4.760;2024-01-25T05:27:55;35.05;;;10.23;;
27383;SDS011;14851;51.166;4.760;2024-01-25T05:30:22;47.83;;;11.75;;
27383;SDS011;14851;51.166;4.760;2024-01-25T05:32:49;35.95;;;9.23;;
27383;SDS011;14851;51.166;4.760;2024-01-25T05:35:17;28.58;;;8.45;;
27383;SDS011;14851;51.166;4.760;2024-01-25T05:37:47;31.77;;;8.77;;
27383;SDS011;14851;51.166;4.760;2024-01-25T05:40:12;42.03;;;9.40;;
27383;SDS011;14851;51.166;4.760;2024-01-25T05:42:39;35.33;;;10.07;;
27383;SDS011;14851;51.166;4.760;2024-01-25T05:45:06;42.38;;;10.07;;
27383;SDS011;14851;51.166;4.760;2024-01-25T05:47:34;35.63;;;9.35;;
27383;SDS011;14851;51.166;4.760;2024-01-25T05:50:00;41.30;;;9.27;;
27383;SDS011;14851;51.166;4.760;2024-01-25T05:52:28;33.42;;;7.80;;
27383;SDS011;14851;51.166;4.760;2024-01-25T05:54:55;37.35;;;9.73;;
27383;SDS011;14851;51.166;4.760;2024-01-25T05:57:21;39.20;;;9.15;;
27383;SDS011;14851;51.166;4.760;2024-01-25T05:59:47;40.17;;;9.52;;
27383;SDS011;14851;51.166;4.760;2024-01-25T06:02:13;40.05;;;8.68;;
27383;SDS011;14851;51.166;4.760;2024-01-25T06:04:43;33.63;;;8.90;;
27383;SDS011;14851;51.166;4.760;2024-01-25T06:07:09;40.30;;;8.63;;
27383;SDS011;14851;51.166;4.760;2024-01-25T06:09:37;29.80;;;7.65;;
27383;SDS011;14851;51.166;4.760;2024-01-25T06:12:03;39.35;;;8.45;;
27383;SDS011;14851;51.166;4.760;2024-01-25T06:14:32;31.38;;;9.23;;
27383;SDS011;14851;51.166;4.760;2024-01-25T06:17:00;39.50;;;8.52;;
27383;SDS011;14851;51.166;4.760;2024-01-25T06:19:25;33.33;;;9.15;;
27383;SDS011;14851;51.166;4.760;2024-01-25T06:21:51;31.17;;;8.35;;
27383;SDS011;14851;51.166;4.760;2024-01-25T06:24:17;28.30;;;7.05;;
27383;SDS011;14851;51.166;4.760;2024-01-25T06:26:43;29.05;;;7.13;;
27383;SDS011;14851;51.166;4.760;2024-01-25T06:29:09;38.33;;;7.85;;
27383;SDS011;14851;51.166;4.760;2024-01-25T06:31:40;47.03;;;8.02;;
27383;SDS011;14851;51.166;4.760;2024-01-25T06:34:09;35.35;;;7.15;;
27383;SDS011;14851;51.166;4.760;2024-01-25T06:36:35;31.45;;;7.20;;
27383;SDS011;14851;51.166;4.760;2024-01-25T06:39:01;29.02;;;7.75;;
27383;SDS011;14851;51.166;4.760;2024-01-25T06:41:29;28.63;;;6.28;;
27383;SDS011;14851;51.166;4.760;2024-01-25T06:43:58;29.10;;;7.15;;
27383;SDS011;14851;51.166;4.760;2024-01-25T06:46:26;41.10;;;7.75;;
27383;SDS011;14851;51.166;4.760;2024-01-25T06:48:52;44.28;;;8.52;;
27383;SDS011;14851;51.166;4.760;2024-01-25T06:51:18;41.05;;;8.05;;
27383;SDS011;14851;51.166;4.760;2024-01-25T06:53:44;34.20;;;8.82;;
27383;SDS011;14851;51.166;4.760;2024-01-25T06:56:10;36.38;;;8.25;;
27383;SDS011;14851;51.166;4.760;2024-01-25T06:58:35;40.47;;;7.88;;
27383;SDS011;14851;51.166;4.760;2024-01-25T07:01:01;38.55;;;7.97;;
27383;SDS011;14851;51.166;4.760;2024-01-25T07:03:29;41.58;;;8.15;;
27383;SDS011;14851;51.166;4.760;2024-01-25T07:05:55;35.85;;;8.05;;
27383;SDS011;14851;51.166;4.760;2024-01-25T07:08:21;39.72;;;8.15;;
27383;SDS011;14851;51.166;4.760;2024-01-25T07:10:51;48.13;;;9.73;;
27383;SDS011;14851;51.166;4.760;2024-01-25T07:13:17;36.35;;;7.63;;
27383;SDS011;14851;51.166;4.760;2024-01-25T07:15:46;38.60;;;7.68;;
27383;SDS011;14851;51.166;4.760;2024-01-25T07:18:14;39.78;;;8.30;;
27383;SDS011;14851;51.166;4.760;2024-01-25T07:20:40;45.35;;;9.30;;
27383;SDS011;14851;51.166;4.760;2024-01-25T07:23:06;51.05;;;10.25;;
27383;SDS011;14851;51.166;4.760;2024-01-25T07:25:34;45.92;;;9.32;;
27383;SDS011;14851;51.166;4.760;2024-01-25T07:28:04;45.92;;;9.43;;
27383;SDS011;14851;51.166;4.760;2024-01-25T07:30:34;44.30;;;8.63;;
27383;SDS011;14851;51.166;4.760;2024-01-25T07:33:02;35.20;;;7.55;;
27383;SDS011;14851;51.166;4.760;2024-01-25T07:35:28;37.10;;;10.25;;
27383;SDS011;14851;51.166;4.760;2024-01-25T07:37:56;48.47;;;10.57;;
27383;SDS011;14851;51.166;4.760;2024-01-25T07:40:22;36.45;;;10.48;;
27383;SDS011;14851;51.166;4.760;2024-01-25T07:42:48;37.40;;;11.35;;
27383;SDS011;14851;51.166;4.760;2024-01-25T07:45:13;41.60;;;9.68;;
27383;SDS011;14851;51.166;4.760;2024-01-25T07:47:43;36.30;;;8.40;;
27383;SDS011;14851;51.166;4.760;2024-01-25T07:50:10;36.50;;;7.38;;
27383;SDS011;14851;51.166;4.760;2024-01-25T07:52:37;47.13;;;10.82;;
27383;SDS011;14851;51.166;4.760;2024-01-25T07:55:05;45.33;;;11.48;;
27383;SDS011;14851;51.166;4.760;2024-01-25T07:57:31;53.55;;;13.10;;
27383;SDS011;14851;51.166;4.760;2024-01-25T07:59:57;49.80;;;12.27;;
27383;SDS011;14851;51.166;4.760;2024-01-25T08:02:23;47.75;;;13.52;;
27383;SDS011;14851;51.166;4.760;2024-01-25T08:04:49;44.20;;;11.13;;
27383;SDS011;14851;51.166;4.760;2024-01-25T08:07:22;45.50;;;12.27;;
27383;SDS011;14851;51.166;4.760;2024-01-25T08:09:48;52.78;;;11.73;;
27383;SDS011;14851;51.166;4.760;2024-01-25T08:12:17;44.47;;;10.95;;
27383;SDS011;14851;51.166;4.760;2024-01-25T08:14:42;45.55;;;10.77;;
27383;SDS011;14851;51.166;4.760;2024-01-25T08:17:09;49.78;;;10.65;;
27383;SDS011;14851;51.166;4.760;2024-01-25T08:19:35;47.97;;;10.65;;
27383;SDS011;14851;51.166;4.760;2024-01-25T08:22:01;49.03;;;10.77;;
27383;SDS011;14851;51.166;4.760;2024-01-25T08:24:29;41.92;;;10.55;;
27383;SDS011;14851;51.166;4.760;2024-01-25T08:26:55;49.42;;;11.23;;
27383;SDS011;14851;51.166;4.760;2024-01-25T08:29:21;51.08;;;10.70;;
27383;SDS011;14851;51.166;4.760;2024-01-25T08:31:47;41.88;;;9.98;;
27383;SDS011;14851;51.166;4.760;2024-01-25T08:34:13;35.97;;;7.75;;
27383;SDS011;14851;51.166;4.760;2024-01-25T08:36:40;39.20;;;9.57;;
27383;SDS011;14851;51.166;4.760;2024-01-25T08:39:06;38.03;;;9.13;;
27383;SDS011;14851;51.166;4.760;2024-01-25T08:41:34;36.25;;;9.40;;
27383;SDS011;14851;51.166;4.760;2024-01-25T08:44:00;40.53;;;9.02;;
27383;SDS011;14851;51.166;4.760;2024-01-25T08:46:26;49.03;;;9.60;;
27383;SDS011;14851;51.166;4.760;2024-01-25T08:48:52;44.40;;;8.98;;
27383;SDS011;14851;51.166;4.760;2024-01-25T08:51:19;50.75;;;10.45;;
27383;SDS011;14851;51.166;4.760;2024-01-25T08:53:45;43.08;;;9.50;;
27383;SDS011;14851;51.166;4.760;2024-01-25T08:56:13;53.45;;;9.93;;
27383;SDS011;14851;51.166;4.760;2024-01-25T08:58:42;45.33;;;10.25;;
27383;SDS011;14851;51.166;4.760;2024-01-25T09:01:08;48.58;;;9.75;;
27383;SDS011;14851;51.166;4.760;2024-01-25T09:03:35;51.42;;;11.35;;
27383;SDS011;14851;51.166;4.760;2024-01-25T09:06:02;49.10;;;9.70;;
27383;SDS011;14851;51.166;4.760;2024-01-25T09:08:31;51.40;;;10.70;;
27383;SDS011;14851;51.166;4.760;2024-01-25T09:10:57;40.30;;;9.05;;
27383;SDS011;14851;51.166;4.760;2024-01-25T09:13:26;40.53;;;10.05;;
27383;SDS011;14851;51.166;4.760;2024-01-25T09:15:51;47.28;;;10.50;;
27383;SDS011;14851;51.166;4.760;2024-01-25T09:18:18;59.60;;;11.93;;
27383;SDS011;14851;51.166;4.760;2024-01-25T09:20:46;50.80;;;12.18;;
27383;SDS011;14851;51.166;4.760;2024-01-25T09:23:16;55.00;;;11.88;;
27383;SDS011;14851;51.166;4.760;2024-01-25T09:25:42;45.58;;;10.73;;
27383;SDS011;14851;51.166;4.760;2024-01-25T09:28:10;45.40;;;10.95;;
27383;SDS011;14851;51.166;4.760;2024-01-25T09:30:37;42.78;;;10.55;;
27383;SDS011;14851;51.166;4.760;2024-01-25T09:33:05;42.28;;;8.88;;
27383;SDS011;14851;51.166;4.760;2024-01-25T09:35:31;48.70;;;11.38;;
27383;SDS011;14851;51.166;4.760;2024-01-25T09:37:57;40.25;;;9.07;;
27383;SDS011;14851;51.166;4.760;2024-01-25T09:40:23;48.38;;;11.82;;
27383;SDS011;14851;51.166;4.760;2024-01-25T09:42:51;42.65;;;10.57;;
27383;SDS011;14851;51.166;4.760;2024-01-25T09:45:18;45.15;;;12.07;;
27383;SDS011;14851;51.166;4.760;2024-01-25T09:47:44;49.55;;;14.40;;
27383;SDS011;14851;51.166;4.760;2024-01-25T09:50:11;49.67;;;12.40;;
27383;SDS011;14851;51.166;4.760;2024-01-25T09:52:43;46.60;;;12.18;;
27383;SDS011;14851;51.166;4.760;2024-01-25T09:55:14;50.70;;;12.65;;
27383;SDS011;14851;51.166;4.760;2024-01-25T10:00:14;47.67;;;12.60;;
27383;SDS011;14851;51.166;4.760;2024-01-25T10:02:43;48.70;;;13.15;;
27383;SDS011;14851;51.166;4.760;2024-01-25T10:05:09;31.92;;;11.32;;
27383;SDS011;14851;51.166;4.760;2024-01-25T10:10:08;36.70;;;11.27;;
27383;SDS011;14851;51.166;4.760;2024-01-25T10:12:34;42.85;;;10.32;;
27383;SDS011;14851;51.166;4.760;2024-01-25T10:15:02;49.72;;;13.00;;
27383;SDS011;14851;51.166;4.760;2024-01-25T10:17:29;43.88;;;11.95;;
27383;SDS011;14851;51.166;4.760;2024-01-25T10:19:55;34.22;;;10.55;;
27383;SDS011;14851;51.166;4.760;2024-01-25T10:22:21;48.85;;;13.05;;
27383;SDS011;14851;51.166;4.760;2024-01-25T10:24:48;47.03;;;13.60;;
27383;SDS011;14851;51.166;4.760;2024-01-25T10:27:18;49.78;;;14.23;;
27383;SDS011;14851;51.166;4.760;2024-01-25T10:29:44;44.10;;;13.65;;
27383;SDS011;14851;51.166;4.760;2024-01-25T10:32:10;34.20;;;10.48;;
27383;SDS011;14851;51.166;4.760;2024-01-25T10:34:39;38.35;;;11.82;;
27383;SDS011;14851;51.166;4.760;2024-01-25T10:37:06;40.55;;;14.23;;
27383;SDS011;14851;51.166;4.760;2024-01-25T10:39:33;42.85;;;14.18;;
27383;SDS011;14851;51.166;4.760;2024-01-25T10:42:01;37.95;;;14.70;;
27383;SDS011;14851;51.166;4.760;2024-01-25T10:44:29;30.52;;;14.98;;
27383;SDS011;14851;51.166;4.760;2024-01-25T10:46:55;35.17;;;16.40;;
27383;SDS011;14851;51.166;4.760;2024-01-25T10:49:21;37.67;;;17.77;;
27383;SDS011;14851;51.166;4.760;2024-01-25T10:51:47;34.42;;;16.50;;
27383;SDS011;14851;51.166;4.760;2024-01-25T10:54:14;30.55;;;15.35;;
27383;SDS011;14851;51.166;4.760;2024-01-25T10:56:41;29.55;;;15.52;;
27383;SDS011;14851;51.166;4.760;2024-01-25T10:59:07;35.25;;;17.48;;
27383;SDS011;14851;51.166;4.760;2024-01-25T11:01:34;41.10;;;18.02;;
27383;SDS011;14851;51.166;4.760;2024-01-25T11:04:00;34.15;;;18.35;;
27383;SDS011;14851;51.166;4.760;2024-01-25T11:06:31;37.00;;;18.23;;
27383;SDS011;14851;51.166;4.760;2024-01-25T11:09:04;35.13;;;17.52;;
27383;SDS011;14851;51.166;4.760;2024-01-25T11:11:35;35.30;;;18.55;;
27383;SDS011;14851;51.166;4.760;2024-01-25T11:14:02;36.63;;;18.25;;
27383;SDS011;14851;51.166;4.760;2024-01-25T11:16:36;37.00;;;19.80;;
27383;SDS011;14851;51.166;4.760;2024-01-25T11:19:07;44.97;;;21.38;;
27383;SDS011;14851;51.166;4.760;2024-01-25T11:21:39;40.72;;;19.00;;
27383;SDS011;14851;51.166;4.760;2024-01-25T11:24:13;36.85;;;19.83;;
27383;SDS011;14851;51.166;4.760;2024-01-25T11:26:42;38.22;;;19.02;;
27383;SDS011;14851;51.166;4.760;2024-01-25T11:29:09;44.92;;;22.15;;
27383;SDS011;14851;51.166;4.760;2024-01-25T11:31:39;43.10;;;20.70;;
27383;SDS011;14851;51.166;4.760;2024-01-25T11:34:05;46.83;;;21.40;;
27383;SDS011;14851;51.166;4.760;2024-01-25T11:36:31;43.15;;;19.33;;
27383;SDS011;14851;51.166;4.760;2024-01-25T11:38:57;46.58;;;20.80;;
27383;SDS011;14851;51.166;4.760;2024-01-25T11:41:25;39.70;;;19.00;;
27383;SDS011;14851;51.166;4.760;2024-01-25T11:43:51;40.85;;;16.77;;
27383;SDS011;14851;51.166;4.760;2024-01-25T11:46:17;40.85;;;19.38;;
27383;SDS011;14851;51.166;4.760;2024-01-25T11:48:45;40.33;;;18.05;;
27383;SDS011;14851;51.166;4.760;2024-01-25T11:51:11;37.60;;;17.35;;
27383;SDS011;14851;51.166;4.760;2024-01-25T11:53:38;37.85;;;17.70;;
27383;SDS011;14851;51.166;4.760;2024-01-25T11:56:07;38.80;;;16.08;;
27383;SDS011;14851;51.166;4.760;2024-01-25T11:58:38;43.00;;;18.20;;
27383;SDS011;14851;51.166;4.760;2024-01-25T12:01:05;45.53;;;18.83;;
27383;SDS011;14851;51.166;4.760;2024-01-25T12:03:35;43.60;;;18.83;;
27383;SDS011;14851;51.166;4.760;2024-01-25T12:06:04;33.50;;;17.70;;
27383;SDS011;14851;51.166;4.760;2024-01-25T12:08:34;41.67;;;19.00;;
27383;SDS011;14851;51.166;4.760;2024-01-25T12:11:10;41.42;;;19.67;;
27383;SDS011;14851;51.166;4.760;2024-01-25T12:13:40;35.60;;;15.77;;
27383;SDS011;14851;51.166;4.760;2024-01-25T12:16:11;36.80;;;18.67;;
27383;SDS011;14851;51.166;4.760;2024-01-25T12:18:40;32.33;;;17.73;;
27383;SDS011;14851;51.166;4.760;2024-01-25T12:21:07;43.90;;;21.93;;
27383;SDS011;14851;51.166;4.760;2024-01-25T12:23:34;35.72;;;17.15;;
27383;SDS011;14851;51.166;4.760;2024-01-25T12:26:08;39.28;;;19.70;;
27383;SDS011;14851;51.166;4.760;2024-01-25T12:28:35;39.42;;;19.98;;
27383;SDS011;14851;51.166;4.760;2024-01-25T12:31:03;38.15;;;16.35;;
27383;SDS011;14851;51.166;4.760;2024-01-25T12:33:30;45.55;;;19.42;;
27383;SDS011;14851;51.166;4.760;2024-01-25T12:35:59;34.67;;;17.55;;
27383;SDS011;14851;51.166;4.760;2024-01-25T12:38:26;34.75;;;16.05;;
27383;SDS011;14851;51.166;4.760;2024-01-25T12:40:53;40.17;;;17.55;;
27383;SDS011;14851;51.166;4.760;2024-01-25T12:43:19;42.72;;;20.48;;
27383;SDS011;14851;51.166;4.760;2024-01-25T12:45:48;46.65;;;25.52;;
27383;SDS011;14851;51.166;4.760;2024-01-25T12:50:44;39.67;;;18.67;;
27383;SDS011;14851;51.166;4.760;2024-01-25T12:53:10;36.42;;;17.60;;
27383;SDS011;14851;51.166;4.760;2024-01-25T12:55:39;36.60;;;21.33;;
27383;SDS011;14851;51.166;4.760;2024-01-25T12:58:04;35.83;;;18.88;;
27383;SDS011;14851;51.166;4.760;2024-01-25T13:00:33;36.17;;;15.80;;
27383;SDS011;14851;51.166;4.760;2024-01-25T13:02:59;43.30;;;16.67;;
27383;SDS011;14851;51.166;4.760;2024-01-25T13:05:27;44.10;;;20.98;;
27383;SDS011;14851;51.166;4.760;2024-01-25T13:07:59;39.88;;;17.65;;
27383;SDS011;14851;51.166;4.760;2024-01-25T13:10:28;39.42;;;16.08;;
27383;SDS011;14851;51.166;4.760;2024-01-25T13:12:54;43.75;;;23.80;;
27383;SDS011;14851;51.166;4.760;2024-01-25T13:15:22;32.13;;;17.35;;
27383;SDS011;14851;51.166;4.760;2024-01-25T13:17:48;35.42;;;14.75;;
27383;SDS011;14851;51.166;4.760;2024-01-25T13:20:14;44.50;;;20.25;;
27383;SDS011;14851;51.166;4.760;2024-01-25T13:22:41;41.33;;;18.10;;
27383;SDS011;14851;51.166;4.760;2024-01-25T13:25:07;40.70;;;16.05;;
27383;SDS011;14851;51.166;4.760;2024-01-25T13:27:35;48.25;;;18.17;;
27383;SDS011;14851;51.166;4.760;2024-01-25T13:30:04;35.28;;;14.82;;
27383;SDS011;14851;51.166;4.760;2024-01-25T13:32:30;45.97;;;17.45;;
27383;SDS011;14851;51.166;4.760;2024-01-25T13:34:56;41.47;;;16.90;;
27383;SDS011;14851;51.166;4.760;2024-01-25T13:37:22;38.47;;;14.55;;
27383;SDS011;14851;51.166;4.760;2024-01-25T13:39:50;45.15;;;16.73;;
27383;SDS011;14851;51.166;4.760;2024-01-25T13:42:16;48.40;;;23.55;;
27383;SDS011;14851;51.166;4.760;2024-01-25T13:44:42;67.15;;;41.92;;
27383;SDS011;14851;51.166;4.760;2024-01-25T13:47:10;51.83;;;29.55;;
27383;SDS011;14851;51.166;4.760;2024-01-25T13:49:36;53.50;;;34.50;;
27383;SDS011;14851;51.166;4.760;2024-01-25T13:52:02;47.63;;;23.38;;
27383;SDS011;14851;51.166;4.760;2024-01-25T13:54:28;49.55;;;24.27;;
27383;SDS011;14851;51.166;4.760;2024-01-25T13:56:54;43.55;;;19.65;;
27383;SDS011;14851;51.166;4.760;2024-01-25T13:59:21;47.35;;;21.90;;
27383;SDS011;14851;51.166;4.760;2024-01-25T14:01:46;41.38;;;17.40;;
27383;SDS011;14851;51.166;4.760;2024-01-25T14:04:14;41.40;;;17.67;;
27383;SDS011;14851;51.166;4.760;2024-01-25T14:06:40;38.70;;;16.80;;
27383;SDS011;14851;51.166;4.760;2024-01-25T14:09:08;35.90;;;17.15;;
27383;SDS011;14851;51.166;4.760;2024-01-25T14:11:34;37.03;;;14.27;;
27383;SDS011;14851;51.166;4.760;2024-01-25T14:14:00;32.70;;;14.95;;
27383;SDS011;14851;51.166;4.760;2024-01-25T14:16:26;35.75;;;15.93;;
27383;SDS011;14851;51.166;4.760;2024-01-25T14:18:52;36.15;;;14.73;;
27383;SDS011;14851;51.166;4.760;2024-01-25T14:21:17;37.08;;;14.32;;
27383;SDS011;14851;51.166;4.760;2024-01-25T14:23:46;35.90;;;14.43;;
27383;SDS011;14851;51.166;4.760;2024-01-25T14:26:12;38.35;;;15.30;;
27383;SDS011;14851;51.166;4.760;2024-01-25T14:28:38;33.38;;;16.50;;
27383;SDS011;14851;51.166;4.760;2024-01-25T14:31:04;35.85;;;14.20;;
27383;SDS011;14851;51.166;4.760;2024-01-25T14:33:29;34.92;;;14.93;;
27383;SDS011;14851;51.166;4.760;2024-01-25T14:35:58;34.40;;;13.73;;
27383;SDS011;14851;51.166;4.760;2024-01-25T14:38:26;34.33;;;15.45;;
27383;SDS011;14851;51.166;4.760;2024-01-25T14:40:54;33.60;;;15.18;;
27383;SDS011;14851;51.166;4.760;2024-01-25T14:43:23;68.28;;;50.50;;
27383;SDS011;14851;51.166;4.760;2024-01-25T14:45:48;68.18;;;40.33;;
27383;SDS011;14851;51.166;4.760;2024-01-25T14:48:14;51.90;;;26.15;;
27383;SDS011;14851;51.166;4.760;2024-01-25T14:50:42;45.88;;;25.00;;
27383;SDS011;14851;51.166;4.760;2024-01-25T14:53:08;35.47;;;18.05;;
27383;SDS011;14851;51.166;4.760;2024-01-25T14:55:34;34.00;;;15.60;;
27383;SDS011;14851;51.166;4.760;2024-01-25T14:58:03;34.80;;;15.25;;